Arcola, Louisiana
Current Conditions -  °F | °C
As of 11:15 AM on Thursday 27 Nov 2014 (Local Time) from KHDC Reporting Station
Clear Clear  
Wind Chill: 57°   Ceiling: Unl
Heat Index: 57°   Visibility: 10mi
Dew Point: 28°   Wind: 12mph
Humidity: 33%   Direction: 350°N
Pressure: 30.45"   Gusts: NA
Location:  30.7896°N, 90.5314°W
Report Text: KHDC 271715Z AUTO 35010KT 10SM CLR 14/M02 A3045 RMK AO2
Loading
Personal Weather Stations






























Interactive Weather Map New forecast layout! Learn more

10-Day Weather Forecast

Advertisements
Track Severe Weather on mobile